sensor_id;sensor_type;location;lat;lon;timestamp;P1;durP1;ratioP1;P2;durP2;ratioP2
9222;SDS011;7557;51.698;3.942;2022-10-16T00:01:36;1.53;;;1.37;;
9222;SDS011;7557;51.698;3.942;2022-10-16T00:04:05;3.30;;;1.63;;
9222;SDS011;7557;51.698;3.942;2022-10-16T00:06:34;3.58;;;1.40;;
9222;SDS011;7557;51.698;3.942;2022-10-16T00:09:01;3.13;;;1.73;;
9222;SDS011;7557;51.698;3.942;2022-10-16T00:11:42;2.33;;;1.80;;
9222;SDS011;7557;51.698;3.942;2022-10-16T00:14:23;1.80;;;1.70;;
9222;SDS011;7557;51.698;3.942;2022-10-16T00:16:51;1.70;;;1.65;;
9222;SDS011;7557;51.698;3.942;2022-10-16T00:19:18;2.07;;;1.90;;
9222;SDS011;7557;51.698;3.942;2022-10-16T00:21:55;1.50;;;1.40;;
9222;SDS011;7557;51.698;3.942;2022-10-16T00:24:23;1.77;;;1.57;;
9222;SDS011;7557;51.698;3.942;2022-10-16T00:26:50;1.70;;;1.60;;
9222;SDS011;7557;51.698;3.942;2022-10-16T00:29:18;3.92;;;2.13;;
9222;SDS011;7557;51.698;3.942;2022-10-16T00:31:45;2.13;;;1.90;;
9222;SDS011;7557;51.698;3.942;2022-10-16T00:34:13;1.80;;;1.67;;
9222;SDS011;7557;51.698;3.942;2022-10-16T00:36:40;1.80;;;1.70;;
9222;SDS011;7557;51.698;3.942;2022-10-16T00:39:13;2.67;;;2.10;;
9222;SDS011;7557;51.698;3.942;2022-10-16T00:41:41;1.70;;;1.60;;
9222;SDS011;7557;51.698;3.942;2022-10-16T00:47:17;1.53;;;1.43;;
9222;SDS011;7557;51.698;3.942;2022-10-16T00:49:50;3.43;;;1.73;;
9222;SDS011;7557;51.698;3.942;2022-10-16T00:52:20;2.23;;;1.90;;
9222;SDS011;7557;51.698;3.942;2022-10-16T00:54:49;2.43;;;1.60;;
9222;SDS011;7557;51.698;3.942;2022-10-16T00:57:18;2.53;;;2.13;;
9222;SDS011;7557;51.698;3.942;2022-10-16T00:59:46;2.00;;;1.97;;
9222;SDS011;7557;51.698;3.942;2022-10-16T01:02:14;2.47;;;2.37;;
9222;SDS011;7557;51.698;3.942;2022-10-16T01:04:44;2.90;;;2.70;;
9222;SDS011;7557;51.698;3.942;2022-10-16T01:07:14;2.50;;;2.30;;
9222;SDS011;7557;51.698;3.942;2022-10-16T01:09:54;4.77;;;2.90;;
9222;SDS011;7557;51.698;3.942;2022-10-16T01:12:35;3.10;;;2.80;;
9222;SDS011;7557;51.698;3.942;2022-10-16T01:15:14;2.67;;;2.47;;
9222;SDS011;7557;51.698;3.942;2022-10-16T01:17:45;2.90;;;2.70;;
9222;SDS011;7557;51.698;3.942;2022-10-16T01:20:21;2.70;;;2.57;;
9222;SDS011;7557;51.698;3.942;2022-10-16T01:23:07;4.83;;;3.20;;
9222;SDS011;7557;51.698;3.942;2022-10-16T01:25:59;3.20;;;3.00;;
9222;SDS011;7557;51.698;3.942;2022-10-16T01:28:49;3.57;;;2.80;;
9222;SDS011;7557;51.698;3.942;2022-10-16T01:31:22;4.00;;;2.30;;
9222;SDS011;7557;51.698;3.942;2022-10-16T01:33:53;2.93;;;2.73;;
9222;SDS011;7557;51.698;3.942;2022-10-16T01:36:28;2.63;;;2.43;;
9222;SDS011;7557;51.698;3.942;2022-10-16T01:39:01;2.63;;;2.20;;
9222;SDS011;7557;51.698;3.942;2022-10-16T01:41:43;2.27;;;2.10;;
9222;SDS011;7557;51.698;3.942;2022-10-16T01:47:01;2.40;;;2.30;;
9222;SDS011;7557;51.698;3.942;2022-10-16T01:49:43;2.97;;;2.00;;
9222;SDS011;7557;51.698;3.942;2022-10-16T01:52:13;2.63;;;1.93;;
9222;SDS011;7557;51.698;3.942;2022-10-16T01:54:45;3.00;;;1.83;;
9222;SDS011;7557;51.698;3.942;2022-10-16T01:57:15;1.83;;;1.70;;
9222;SDS011;7557;51.698;3.942;2022-10-16T01:59:47;5.80;;;1.87;;
9222;SDS011;7557;51.698;3.942;2022-10-16T02:02:19;1.50;;;1.50;;
9222;SDS011;7557;51.698;3.942;2022-10-16T02:04:58;2.10;;;1.67;;
9222;SDS011;7557;51.698;3.942;2022-10-16T02:07:31;1.70;;;1.60;;
9222;SDS011;7557;51.698;3.942;2022-10-16T02:09:59;2.13;;;1.90;;
9222;SDS011;7557;51.698;3.942;2022-10-16T02:12:41;1.80;;;1.70;;
9222;SDS011;7557;51.698;3.942;2022-10-16T02:18:13;1.80;;;1.70;;
9222;SDS011;7557;51.698;3.942;2022-10-16T02:20:43;1.53;;;1.43;;
9222;SDS011;7557;51.698;3.942;2022-10-16T02:23:34;1.63;;;1.50;;
9222;SDS011;7557;51.698;3.942;2022-10-16T02:26:08;4.07;;;1.90;;
9222;SDS011;7557;51.698;3.942;2022-10-16T02:28:55;1.50;;;1.40;;
9222;SDS011;7557;51.698;3.942;2022-10-16T02:31:28;3.70;;;1.50;;
9222;SDS011;7557;51.698;3.942;2022-10-16T02:33:59;1.80;;;1.70;;
9222;SDS011;7557;51.698;3.942;2022-10-16T02:36:30;1.80;;;1.70;;
9222;SDS011;7557;51.698;3.942;2022-10-16T02:38:59;2.37;;;1.87;;
9222;SDS011;7557;51.698;3.942;2022-10-16T02:41:40;1.23;;;1.23;;
9222;SDS011;7557;51.698;3.942;2022-10-16T02:44:08;6.37;;;2.07;;
9222;SDS011;7557;51.698;3.942;2022-10-16T02:46:37;1.63;;;1.60;;
9222;SDS011;7557;51.698;3.942;2022-10-16T02:49:04;3.07;;;1.70;;
9222;SDS011;7557;51.698;3.942;2022-10-16T02:51:32;1.70;;;1.60;;
9222;SDS011;7557;51.698;3.942;2022-10-16T02:53:59;3.47;;;1.77;;
9222;SDS011;7557;51.698;3.942;2022-10-16T02:56:27;1.77;;;1.63;;
9222;SDS011;7557;51.698;3.942;2022-10-16T02:58:55;1.60;;;1.50;;
9222;SDS011;7557;51.698;3.942;2022-10-16T03:01:22;2.00;;;1.60;;
9222;SDS011;7557;51.698;3.942;2022-10-16T03:03:51;3.50;;;1.60;;
9222;SDS011;7557;51.698;3.942;2022-10-16T03:06:19;3.70;;;1.70;;
9222;SDS011;7557;51.698;3.942;2022-10-16T03:08:55;3.47;;;1.60;;
9222;SDS011;7557;51.698;3.942;2022-10-16T03:11:36;7.57;;;1.60;;
9222;SDS011;7557;51.698;3.942;2022-10-16T03:14:03;2.80;;;2.00;;
9222;SDS011;7557;51.698;3.942;2022-10-16T03:16:31;3.00;;;1.70;;
9222;SDS011;7557;51.698;3.942;2022-10-16T03:19:00;1.70;;;1.60;;
9222;SDS011;7557;51.698;3.942;2022-10-16T03:21:29;1.70;;;1.60;;
9222;SDS011;7557;51.698;3.942;2022-10-16T03:23:56;4.90;;;2.33;;
9222;SDS011;7557;51.698;3.942;2022-10-16T03:26:37;2.73;;;2.27;;
9222;SDS011;7557;51.698;3.942;2022-10-16T03:29:05;2.00;;;1.90;;
9222;SDS011;7557;51.698;3.942;2022-10-16T03:31:32;2.37;;;1.90;;
9222;SDS011;7557;51.698;3.942;2022-10-16T03:36:43;2.90;;;2.60;;
9222;SDS011;7557;51.698;3.942;2022-10-16T03:39:24;3.17;;;1.90;;
9222;SDS011;7557;51.698;3.942;2022-10-16T03:41:52;3.13;;;2.00;;
9222;SDS011;7557;51.698;3.942;2022-10-16T03:44:33;4.17;;;2.27;;
9222;SDS011;7557;51.698;3.942;2022-10-16T03:47:09;2.20;;;2.10;;
9222;SDS011;7557;51.698;3.942;2022-10-16T03:49:38;2.33;;;2.07;;
9222;SDS011;7557;51.698;3.942;2022-10-16T03:52:06;2.70;;;1.90;;
9222;SDS011;7557;51.698;3.942;2022-10-16T03:54:33;2.47;;;2.10;;
9222;SDS011;7557;51.698;3.942;2022-10-16T03:57:00;3.60;;;2.30;;
9222;SDS011;7557;51.698;3.942;2022-10-16T03:59:28;2.37;;;2.03;;
9222;SDS011;7557;51.698;3.942;2022-10-16T04:02:09;1.93;;;1.60;;
9222;SDS011;7557;51.698;3.942;2022-10-16T04:04:38;2.80;;;2.10;;
9222;SDS011;7557;51.698;3.942;2022-10-16T04:07:05;2.40;;;2.20;;
9222;SDS011;7557;51.698;3.942;2022-10-16T04:09:46;2.20;;;2.00;;
9222;SDS011;7557;51.698;3.942;2022-10-16T04:12:14;2.43;;;1.80;;
9222;SDS011;7557;51.698;3.942;2022-10-16T04:14:41;2.53;;;2.07;;
9222;SDS011;7557;51.698;3.942;2022-10-16T04:17:12;2.20;;;2.00;;
9222;SDS011;7557;51.698;3.942;2022-10-16T04:19:40;2.67;;;2.20;;
9222;SDS011;7557;51.698;3.942;2022-10-16T04:22:08;3.30;;;2.60;;
9222;SDS011;7557;51.698;3.942;2022-10-16T04:24:36;1.90;;;1.80;;
9222;SDS011;7557;51.698;3.942;2022-10-16T04:27:03;2.67;;;2.30;;
9222;SDS011;7557;51.698;3.942;2022-10-16T04:29:44;2.40;;;2.20;;
9222;SDS011;7557;51.698;3.942;2022-10-16T04:32:25;2.93;;;2.20;;
9222;SDS011;7557;51.698;3.942;2022-10-16T04:34:54;2.77;;;1.97;;
9222;SDS011;7557;51.698;3.942;2022-10-16T04:37:23;4.83;;;2.40;;
9222;SDS011;7557;51.698;3.942;2022-10-16T04:39:51;2.27;;;1.90;;
9222;SDS011;7557;51.698;3.942;2022-10-16T04:42:19;3.33;;;2.30;;
9222;SDS011;7557;51.698;3.942;2022-10-16T04:44:47;2.90;;;2.27;;
9222;SDS011;7557;51.698;3.942;2022-10-16T04:47:14;2.70;;;2.37;;
9222;SDS011;7557;51.698;3.942;2022-10-16T04:49:57;2.30;;;1.97;;
9222;SDS011;7557;51.698;3.942;2022-10-16T04:52:27;4.97;;;2.00;;
9222;SDS011;7557;51.698;3.942;2022-10-16T04:54:56;4.10;;;2.10;;
9222;SDS011;7557;51.698;3.942;2022-10-16T04:57:26;3.43;;;2.27;;
9222;SDS011;7557;51.698;3.942;2022-10-16T05:00:08;3.80;;;2.35;;
9222;SDS011;7557;51.698;3.942;2022-10-16T05:02:36;4.23;;;1.90;;
9222;SDS011;7557;51.698;3.942;2022-10-16T05:05:06;4.20;;;2.00;;
9222;SDS011;7557;51.698;3.942;2022-10-16T05:07:33;2.00;;;1.90;;
9222;SDS011;7557;51.698;3.942;2022-10-16T05:10:01;4.23;;;1.90;;
9222;SDS011;7557;51.698;3.942;2022-10-16T05:12:29;2.53;;;1.90;;
9222;SDS011;7557;51.698;3.942;2022-10-16T05:14:56;3.20;;;2.23;;
9222;SDS011;7557;51.698;3.942;2022-10-16T05:17:23;3.90;;;1.73;;
9222;SDS011;7557;51.698;3.942;2022-10-16T05:19:51;7.03;;;2.20;;
9222;SDS011;7557;51.698;3.942;2022-10-16T05:22:20;1.80;;;1.70;;
9222;SDS011;7557;51.698;3.942;2022-10-16T05:24:47;3.40;;;1.90;;
9222;SDS011;7557;51.698;3.942;2022-10-16T05:27:15;4.40;;;1.77;;
9222;SDS011;7557;51.698;3.942;2022-10-16T05:29:45;2.87;;;1.80;;
9222;SDS011;7557;51.698;3.942;2022-10-16T05:32:26;3.93;;;1.73;;
9222;SDS011;7557;51.698;3.942;2022-10-16T05:35:07;3.10;;;2.20;;
9222;SDS011;7557;51.698;3.942;2022-10-16T05:37:36;2.50;;;2.20;;
9222;SDS011;7557;51.698;3.942;2022-10-16T05:40:04;3.50;;;2.27;;
9222;SDS011;7557;51.698;3.942;2022-10-16T05:42:32;7.37;;;2.37;;
9222;SDS011;7557;51.698;3.942;2022-10-16T05:45:13;2.87;;;1.87;;
9222;SDS011;7557;51.698;3.942;2022-10-16T05:47:40;3.23;;;2.00;;
9222;SDS011;7557;51.698;3.942;2022-10-16T05:50:08;6.77;;;2.10;;
9222;SDS011;7557;51.698;3.942;2022-10-16T05:52:37;4.83;;;2.10;;
9222;SDS011;7557;51.698;3.942;2022-10-16T05:55:04;2.90;;;2.23;;
9222;SDS011;7557;51.698;3.942;2022-10-16T05:57:32;4.37;;;2.20;;
9222;SDS011;7557;51.698;3.942;2022-10-16T06:00:00;4.70;;;2.10;;
9222;SDS011;7557;51.698;3.942;2022-10-16T06:02:41;6.97;;;2.27;;
9222;SDS011;7557;51.698;3.942;2022-10-16T06:05:08;2.20;;;2.00;;
9222;SDS011;7557;51.698;3.942;2022-10-16T06:07:41;6.37;;;2.33;;
9222;SDS011;7557;51.698;3.942;2022-10-16T06:10:09;5.30;;;2.57;;
9222;SDS011;7557;51.698;3.942;2022-10-16T06:12:36;5.53;;;2.70;;
9222;SDS011;7557;51.698;3.942;2022-10-16T06:15:04;5.20;;;2.47;;
9222;SDS011;7557;51.698;3.942;2022-10-16T06:17:32;2.70;;;2.50;;
9222;SDS011;7557;51.698;3.942;2022-10-16T06:19:59;4.13;;;2.60;;
9222;SDS011;7557;51.698;3.942;2022-10-16T06:22:26;2.73;;;2.10;;
9222;SDS011;7557;51.698;3.942;2022-10-16T06:24:55;5.23;;;2.53;;
9222;SDS011;7557;51.698;3.942;2022-10-16T06:27:23;5.17;;;2.47;;
9222;SDS011;7557;51.698;3.942;2022-10-16T06:29:50;5.37;;;2.77;;
9222;SDS011;7557;51.698;3.942;2022-10-16T06:32:17;6.30;;;2.30;;
9222;SDS011;7557;51.698;3.942;2022-10-16T06:34:58;8.40;;;2.00;;
9222;SDS011;7557;51.698;3.942;2022-10-16T06:37:39;7.13;;;2.00;;
9222;SDS011;7557;51.698;3.942;2022-10-16T06:40:08;5.33;;;1.93;;
9222;SDS011;7557;51.698;3.942;2022-10-16T06:42:36;4.80;;;2.00;;
9222;SDS011;7557;51.698;3.942;2022-10-16T06:45:04;2.83;;;1.90;;
9222;SDS011;7557;51.698;3.942;2022-10-16T06:47:32;5.47;;;2.20;;
9222;SDS011;7557;51.698;3.942;2022-10-16T06:49:59;3.10;;;2.10;;
9222;SDS011;7557;51.698;3.942;2022-10-16T06:52:28;2.73;;;2.20;;
9222;SDS011;7557;51.698;3.942;2022-10-16T06:54:56;5.77;;;2.20;;
9222;SDS011;7557;51.698;3.942;2022-10-16T06:57:25;3.50;;;1.97;;
9222;SDS011;7557;51.698;3.942;2022-10-16T06:59:53;4.43;;;1.80;;
9222;SDS011;7557;51.698;3.942;2022-10-16T07:02:20;7.37;;;2.40;;
9222;SDS011;7557;51.698;3.942;2022-10-16T07:04:48;4.97;;;1.80;;
9222;SDS011;7557;51.698;3.942;2022-10-16T07:07:15;2.60;;;1.60;;
9222;SDS011;7557;51.698;3.942;2022-10-16T07:09:56;6.23;;;2.00;;
9222;SDS011;7557;51.698;3.942;2022-10-16T07:15:26;6.50;;;1.90;;
9222;SDS011;7557;51.698;3.942;2022-10-16T07:17:54;7.30;;;2.50;;
9222;SDS011;7557;51.698;3.942;2022-10-16T07:20:21;7.57;;;2.17;;
9222;SDS011;7557;51.698;3.942;2022-10-16T07:22:49;5.63;;;1.80;;
9222;SDS011;7557;51.698;3.942;2022-10-16T07:25:16;3.67;;;1.87;;
9222;SDS011;7557;51.698;3.942;2022-10-16T07:27:43;4.07;;;1.93;;
9222;SDS011;7557;51.698;3.942;2022-10-16T07:30:13;4.70;;;1.80;;
9222;SDS011;7557;51.698;3.942;2022-10-16T07:32:43;4.67;;;1.80;;
9222;SDS011;7557;51.698;3.942;2022-10-16T07:35:11;4.47;;;2.13;;
9222;SDS011;7557;51.698;3.942;2022-10-16T07:37:38;3.83;;;1.70;;
9222;SDS011;7557;51.698;3.942;2022-10-16T07:40:06;3.30;;;2.00;;
9222;SDS011;7557;51.698;3.942;2022-10-16T07:42:34;5.80;;;1.90;;
9222;SDS011;7557;51.698;3.942;2022-10-16T07:45:16;5.20;;;1.93;;
9222;SDS011;7557;51.698;3.942;2022-10-16T07:47:44;3.97;;;1.97;;
9222;SDS011;7557;51.698;3.942;2022-10-16T07:50:25;4.73;;;1.97;;
9222;SDS011;7557;51.698;3.942;2022-10-16T07:52:52;6.80;;;2.10;;
9222;SDS011;7557;51.698;3.942;2022-10-16T07:55:20;7.73;;;1.90;;
9222;SDS011;7557;51.698;3.942;2022-10-16T07:58:01;4.03;;;2.13;;
9222;SDS011;7557;51.698;3.942;2022-10-16T08:00:30;5.63;;;2.17;;
9222;SDS011;7557;51.698;3.942;2022-10-16T08:02:58;3.23;;;1.80;;
9222;SDS011;7557;51.698;3.942;2022-10-16T08:05:40;4.40;;;2.67;;
9222;SDS011;7557;51.698;3.942;2022-10-16T08:08:10;6.77;;;1.87;;
9222;SDS011;7557;51.698;3.942;2022-10-16T08:10:39;4.13;;;2.27;;
9222;SDS011;7557;51.698;3.942;2022-10-16T08:13:07;3.80;;;2.00;;
9222;SDS011;7557;51.698;3.942;2022-10-16T08:15:36;5.40;;;1.97;;
9222;SDS011;7557;51.698;3.942;2022-10-16T08:18:04;6.50;;;1.87;;
9222;SDS011;7557;51.698;3.942;2022-10-16T08:20:32;2.80;;;1.70;;
9222;SDS011;7557;51.698;3.942;2022-10-16T08:23:09;5.72;;;2.40;;
9222;SDS011;7557;51.698;3.942;2022-10-16T08:25:37;4.13;;;2.30;;
9222;SDS011;7557;51.698;3.942;2022-10-16T08:28:05;6.90;;;2.42;;
9222;SDS011;7557;51.698;3.942;2022-10-16T08:30:33;3.42;;;2.50;;
9222;SDS011;7557;51.698;3.942;2022-10-16T08:33:02;4.32;;;2.25;;
9222;SDS011;7557;51.698;3.942;2022-10-16T08:35:31;3.60;;;2.05;;
9222;SDS011;7557;51.698;3.942;2022-10-16T08:37:58;2.20;;;1.67;;
9222;SDS011;7557;51.698;3.942;2022-10-16T08:40:26;4.93;;;2.35;;
9222;SDS011;7557;51.698;3.942;2022-10-16T08:43:04;3.88;;;1.95;;
9222;SDS011;7557;51.698;3.942;2022-10-16T08:46:11;2.63;;;1.70;;
9222;SDS011;7557;51.698;3.942;2022-10-16T08:48:48;6.45;;;2.15;;
9222;SDS011;7557;51.698;3.942;2022-10-16T08:51:18;5.32;;;2.05;;
9222;SDS011;7557;51.698;3.942;2022-10-16T08:53:49;7.65;;;2.03;;
9222;SDS011;7557;51.698;3.942;2022-10-16T08:56:20;9.77;;;2.40;;
9222;SDS011;7557;51.698;3.942;2022-10-16T08:58:48;6.18;;;1.88;;
9222;SDS011;7557;51.698;3.942;2022-10-16T09:01:18;7.40;;;2.60;;
9222;SDS011;7557;51.698;3.942;2022-10-16T09:03:57;3.75;;;1.65;;
9222;SDS011;7557;51.698;3.942;2022-10-16T09:06:43;7.03;;;2.63;;
9222;SDS011;7557;51.698;3.942;2022-10-16T09:09:17;4.82;;;2.03;;
9222;SDS011;7557;51.698;3.942;2022-10-16T09:12:14;5.78;;;1.92;;
9222;SDS011;7557;51.698;3.942;2022-10-16T09:14:48;5.75;;;1.88;;
9222;SDS011;7557;51.698;3.942;2022-10-16T09:17:41;5.15;;;1.85;;
9222;SDS011;7557;51.698;3.942;2022-10-16T09:20:19;14.75;;;2.38;;
9222;SDS011;7557;51.698;3.942;2022-10-16T09:22:55;8.18;;;1.90;;
9222;SDS011;7557;51.698;3.942;2022-10-16T09:25:36;5.75;;;2.15;;
9222;SDS011;7557;51.698;3.942;2022-10-16T09:28:07;4.28;;;1.75;;
9222;SDS011;7557;51.698;3.942;2022-10-16T09:30:35;12.43;;;2.13;;
9222;SDS011;7557;51.698;3.942;2022-10-16T09:33:06;5.28;;;1.85;;
9222;SDS011;7557;51.698;3.942;2022-10-16T09:35:35;6.22;;;2.30;;
9222;SDS011;7557;51.698;3.942;2022-10-16T09:38:05;6.03;;;2.10;;
9222;SDS011;7557;51.698;3.942;2022-10-16T09:40:34;7.00;;;2.28;;
9222;SDS011;7557;51.698;3.942;2022-10-16T09:43:05;8.30;;;2.35;;
9222;SDS011;7557;51.698;3.942;2022-10-16T09:45:43;8.30;;;2.28;;
9222;SDS011;7557;51.698;3.942;2022-10-16T09:48:26;5.30;;;2.00;;
9222;SDS011;7557;51.698;3.942;2022-10-16T09:50:59;6.80;;;2.15;;
9222;SDS011;7557;51.698;3.942;2022-10-16T09:53:37;9.60;;;2.53;;
9222;SDS011;7557;51.698;3.942;2022-10-16T09:56:06;9.23;;;2.88;;
9222;SDS011;7557;51.698;3.942;2022-10-16T09:58:34;8.45;;;2.33;;
9222;SDS011;7557;51.698;3.942;2022-10-16T10:01:02;4.88;;;2.75;;
9222;SDS011;7557;51.698;3.942;2022-10-16T10:03:38;6.00;;;2.65;;
9222;SDS011;7557;51.698;3.942;2022-10-16T10:06:15;7.78;;;2.15;;
9222;SDS011;7557;51.698;3.942;2022-10-16T10:09:02;6.68;;;2.15;;
9222;SDS011;7557;51.698;3.942;2022-10-16T10:14:27;6.03;;;2.30;;
9222;SDS011;7557;51.698;3.942;2022-10-16T10:17:06;6.93;;;2.20;;
9222;SDS011;7557;51.698;3.942;2022-10-16T10:19:42;6.57;;;2.33;;
9222;SDS011;7557;51.698;3.942;2022-10-16T10:22:17;4.90;;;1.80;;
9222;SDS011;7557;51.698;3.942;2022-10-16T10:25:12;7.78;;;2.15;;
9222;SDS011;7557;51.698;3.942;2022-10-16T10:27:56;5.45;;;2.08;;
9222;SDS011;7557;51.698;3.942;2022-10-16T10:30:36;9.23;;;2.28;;
9222;SDS011;7557;51.698;3.942;2022-10-16T10:33:12;9.77;;;2.45;;
9222;SDS011;7557;51.698;3.942;2022-10-16T10:36:00;5.07;;;2.25;;
9222;SDS011;7557;51.698;3.942;2022-10-16T10:38:37;9.63;;;2.65;;
9222;SDS011;7557;51.698;3.942;2022-10-16T10:41:34;10.23;;;2.60;;
9222;SDS011;7557;51.698;3.942;2022-10-16T10:44:23;7.25;;;2.10;;
9222;SDS011;7557;51.698;3.942;2022-10-16T10:47:10;6.95;;;2.20;;
9222;SDS011;7557;51.698;3.942;2022-10-16T10:49:50;6.63;;;2.47;;
9222;SDS011;7557;51.698;3.942;2022-10-16T10:55:17;8.80;;;2.33;;
9222;SDS011;7557;51.698;3.942;2022-10-16T11:00:52;6.00;;;2.25;;
9222;SDS011;7557;51.698;3.942;2022-10-16T11:06:26;4.80;;;2.08;;
9222;SDS011;7557;51.698;3.942;2022-10-16T11:08:59;5.38;;;2.40;;
9222;SDS011;7557;51.698;3.942;2022-10-16T11:11:35;6.10;;;2.30;;
9222;SDS011;7557;51.698;3.942;2022-10-16T11:14:11;8.00;;;2.22;;
9222;SDS011;7557;51.698;3.942;2022-10-16T11:16:43;4.28;;;2.20;;
9222;SDS011;7557;51.698;3.942;2022-10-16T11:19:17;9.43;;;2.42;;
9222;SDS011;7557;51.698;3.942;2022-10-16T11:22:11;6.53;;;2.20;;
9222;SDS011;7557;51.698;3.942;2022-10-16T11:24:47;9.07;;;2.70;;
9222;SDS011;7557;51.698;3.942;2022-10-16T11:27:19;5.80;;;2.92;;
9222;SDS011;7557;51.698;3.942;2022-10-16T11:29:55;6.75;;;2.15;;
9222;SDS011;7557;51.698;3.942;2022-10-16T11:32:28;5.35;;;1.95;;
9222;SDS011;7557;51.698;3.942;2022-10-16T11:35:02;5.65;;;2.20;;
9222;SDS011;7557;51.698;3.942;2022-10-16T11:37:39;8.27;;;2.80;;
9222;SDS011;7557;51.698;3.942;2022-10-16T11:40:14;6.28;;;2.38;;
9222;SDS011;7557;51.698;3.942;2022-10-16T11:42:50;8.63;;;2.17;;
9222;SDS011;7557;51.698;3.942;2022-10-16T11:45:26;9.68;;;2.72;;
9222;SDS011;7557;51.698;3.942;2022-10-16T11:48:00;5.40;;;2.17;;
9222;SDS011;7557;51.698;3.942;2022-10-16T11:50:36;3.85;;;1.85;;
9222;SDS011;7557;51.698;3.942;2022-10-16T11:53:10;9.77;;;2.72;;
9222;SDS011;7557;51.698;3.942;2022-10-16T11:55:58;9.00;;;2.38;;
9222;SDS011;7557;51.698;3.942;2022-10-16T11:58:26;8.95;;;2.40;;
9222;SDS011;7557;51.698;3.942;2022-10-16T12:01:00;6.32;;;3.03;;
9222;SDS011;7557;51.698;3.942;2022-10-16T12:03:39;11.05;;;2.67;;
9222;SDS011;7557;51.698;3.942;2022-10-16T12:06:15;13.50;;;2.78;;
9222;SDS011;7557;51.698;3.942;2022-10-16T12:09:11;9.10;;;2.75;;
9222;SDS011;7557;51.698;3.942;2022-10-16T12:11:48;6.03;;;2.25;;
9222;SDS011;7557;51.698;3.942;2022-10-16T12:14:20;7.32;;;2.50;;
9222;SDS011;7557;51.698;3.942;2022-10-16T12:17:00;5.15;;;2.08;;
9222;SDS011;7557;51.698;3.942;2022-10-16T12:19:30;4.75;;;2.15;;
9222;SDS011;7557;51.698;3.942;2022-10-16T12:21:59;7.35;;;2.30;;
9222;SDS011;7557;51.698;3.942;2022-10-16T12:24:33;9.55;;;2.67;;
9222;SDS011;7557;51.698;3.942;2022-10-16T12:27:04;4.78;;;2.20;;
9222;SDS011;7557;51.698;3.942;2022-10-16T12:29:43;7.20;;;2.42;;
9222;SDS011;7557;51.698;3.942;2022-10-16T12:32:21;7.55;;;2.38;;
9222;SDS011;7557;51.698;3.942;2022-10-16T12:34:53;7.53;;;2.25;;
9222;SDS011;7557;51.698;3.942;2022-10-16T12:37:22;6.20;;;2.22;;
9222;SDS011;7557;51.698;3.942;2022-10-16T12:39:51;3.40;;;1.85;;
9222;SDS011;7557;51.698;3.942;2022-10-16T12:45:21;7.47;;;2.10;;
9222;SDS011;7557;51.698;3.942;2022-10-16T12:47:53;7.05;;;2.50;;
9222;SDS011;7557;51.698;3.942;2022-10-16T12:50:25;8.18;;;2.63;;
9222;SDS011;7557;51.698;3.942;2022-10-16T12:52:57;5.28;;;2.30;;
9222;SDS011;7557;51.698;3.942;2022-10-16T12:55:24;7.93;;;2.70;;
9222;SDS011;7557;51.698;3.942;2022-10-16T12:58:19;8.38;;;2.00;;
9222;SDS011;7557;51.698;3.942;2022-10-16T13:00:58;7.90;;;2.47;;
9222;SDS011;7557;51.698;3.942;2022-10-16T13:06:33;5.47;;;2.35;;
9222;SDS011;7557;51.698;3.942;2022-10-16T13:09:38;6.47;;;2.08;;
9222;SDS011;7557;51.698;3.942;2022-10-16T13:12:25;7.63;;;2.72;;
9222;SDS011;7557;51.698;3.942;2022-10-16T13:15:22;9.57;;;2.63;;
9222;SDS011;7557;51.698;3.942;2022-10-16T13:18:11;6.47;;;2.78;;
9222;SDS011;7557;51.698;3.942;2022-10-16T13:23:39;5.90;;;2.80;;
9222;SDS011;7557;51.698;3.942;2022-10-16T13:26:17;5.95;;;2.35;;
9222;SDS011;7557;51.698;3.942;2022-10-16T13:28:52;7.55;;;2.22;;
9222;SDS011;7557;51.698;3.942;2022-10-16T13:34:13;6.63;;;2.53;;
9222;SDS011;7557;51.698;3.942;2022-10-16T13:36:45;7.63;;;2.08;;
9222;SDS011;7557;51.698;3.942;2022-10-16T13:39:19;7.45;;;2.08;;
9222;SDS011;7557;51.698;3.942;2022-10-16T13:41:57;5.88;;;2.20;;
9222;SDS011;7557;51.698;3.942;2022-10-16T13:44:42;7.32;;;2.35;;
9222;SDS011;7557;51.698;3.942;2022-10-16T13:47:17;9.10;;;2.75;;
9222;SDS011;7557;51.698;3.942;2022-10-16T13:49:46;7.82;;;2.65;;
9222;SDS011;7557;51.698;3.942;2022-10-16T13:52:25;7.82;;;2.83;;
9222;SDS011;7557;51.698;3.942;2022-10-16T13:54:52;7.60;;;2.30;;
9222;SDS011;7557;51.698;3.942;2022-10-16T13:57:21;7.72;;;2.80;;
9222;SDS011;7557;51.698;3.942;2022-10-16T13:59:49;9.23;;;2.58;;
9222;SDS011;7557;51.698;3.942;2022-10-16T14:02:21;6.45;;;2.38;;
9222;SDS011;7557;51.698;3.942;2022-10-16T14:04:53;8.88;;;2.67;;
9222;SDS011;7557;51.698;3.942;2022-10-16T14:07:25;11.20;;;2.90;;
9222;SDS011;7557;51.698;3.942;2022-10-16T14:09:56;7.20;;;2.67;;
9222;SDS011;7557;51.698;3.942;2022-10-16T14:12:41;9.15;;;2.72;;
9222;SDS011;7557;51.698;3.942;2022-10-16T14:15:15;6.50;;;2.45;;
9222;SDS011;7557;51.698;3.942;2022-10-16T14:17:59;12.38;;;2.60;;
9222;SDS011;7557;51.698;3.942;2022-10-16T14:20:28;10.77;;;2.40;;
9222;SDS011;7557;51.698;3.942;2022-10-16T14:22:59;9.73;;;2.75;;
9222;SDS011;7557;51.698;3.942;2022-10-16T14:25:29;7.85;;;2.63;;
9222;SDS011;7557;51.698;3.942;2022-10-16T14:28:02;10.43;;;2.55;;
9222;SDS011;7557;51.698;3.942;2022-10-16T14:30:30;8.27;;;2.85;;
9222;SDS011;7557;51.698;3.942;2022-10-16T14:33:01;6.45;;;2.20;;
9222;SDS011;7557;51.698;3.942;2022-10-16T14:35:30;6.85;;;2.40;;
9222;SDS011;7557;51.698;3.942;2022-10-16T14:37:59;12.95;;;3.03;;
9222;SDS011;7557;51.698;3.942;2022-10-16T14:40:29;11.93;;;2.83;;
9222;SDS011;7557;51.698;3.942;2022-10-16T14:42:58;7.47;;;2.47;;
9222;SDS011;7557;51.698;3.942;2022-10-16T14:45:27;7.20;;;2.72;;
9222;SDS011;7557;51.698;3.942;2022-10-16T14:47:57;8.00;;;2.50;;
9222;SDS011;7557;51.698;3.942;2022-10-16T14:50:28;7.70;;;2.47;;
9222;SDS011;7557;51.698;3.942;2022-10-16T14:52:55;9.75;;;2.90;;
9222;SDS011;7557;51.698;3.942;2022-10-16T14:55:23;12.05;;;2.22;;
9222;SDS011;7557;51.698;3.942;2022-10-16T14:57:51;10.80;;;2.63;;
9222;SDS011;7557;51.698;3.942;2022-10-16T15:00:33;7.32;;;2.50;;
9222;SDS011;7557;51.698;3.942;2022-10-16T15:03:00;5.18;;;2.38;;
9222;SDS011;7557;51.698;3.942;2022-10-16T15:05:29;8.52;;;2.60;;
9222;SDS011;7557;51.698;3.942;2022-10-16T15:07:57;8.20;;;2.50;;
9222;SDS011;7557;51.698;3.942;2022-10-16T15:10:25;7.25;;;2.75;;
9222;SDS011;7557;51.698;3.942;2022-10-16T15:12:55;9.32;;;2.70;;
9222;SDS011;7557;51.698;3.942;2022-10-16T15:15:28;9.48;;;3.08;;
9222;SDS011;7557;51.698;3.942;2022-10-16T15:18:00;9.50;;;3.33;;
9222;SDS011;7557;51.698;3.942;2022-10-16T15:20:31;9.38;;;1.90;;
9222;SDS011;7557;51.698;3.942;2022-10-16T15:23:00;9.88;;;2.70;;
9222;SDS011;7557;51.698;3.942;2022-10-16T15:25:30;7.38;;;2.42;;
9222;SDS011;7557;51.698;3.942;2022-10-16T15:27:59;7.65;;;2.60;;
9222;SDS011;7557;51.698;3.942;2022-10-16T15:30:41;7.00;;;2.58;;
9222;SDS011;7557;51.698;3.942;2022-10-16T15:33:11;6.75;;;2.15;;
9222;SDS011;7557;51.698;3.942;2022-10-16T15:35:42;8.48;;;2.30;;
9222;SDS011;7557;51.698;3.942;2022-10-16T15:38:12;7.28;;;2.50;;
9222;SDS011;7557;51.698;3.942;2022-10-16T15:40:40;5.78;;;2.63;;
9222;SDS011;7557;51.698;3.942;2022-10-16T15:43:07;7.88;;;2.85;;
9222;SDS011;7557;51.698;3.942;2022-10-16T15:45:35;9.73;;;2.63;;
9222;SDS011;7557;51.698;3.942;2022-10-16T15:48:03;11.65;;;3.05;;
9222;SDS011;7557;51.698;3.942;2022-10-16T15:50:30;7.45;;;3.17;;
9222;SDS011;7557;51.698;3.942;2022-10-16T15:55:42;6.68;;;2.97;;
9222;SDS011;7557;51.698;3.942;2022-10-16T15:58:10;8.30;;;3.35;;
9222;SDS011;7557;51.698;3.942;2022-10-16T16:00:37;3.50;;;2.97;;
9222;SDS011;7557;51.698;3.942;2022-10-16T16:03:05;7.55;;;3.17;;
9222;SDS011;7557;51.698;3.942;2022-10-16T16:05:32;8.32;;;3.33;;
9222;SDS011;7557;51.698;3.942;2022-10-16T16:08:04;8.63;;;4.18;;
9222;SDS011;7557;51.698;3.942;2022-10-16T16:10:33;11.23;;;3.90;;
9222;SDS011;7557;51.698;3.942;2022-10-16T16:13:00;5.72;;;3.83;;
9222;SDS011;7557;51.698;3.942;2022-10-16T16:15:28;9.10;;;3.92;;
9222;SDS011;7557;51.698;3.942;2022-10-16T16:17:55;11.63;;;4.53;;
9222;SDS011;7557;51.698;3.942;2022-10-16T16:20:22;10.13;;;5.28;;
9222;SDS011;7557;51.698;3.942;2022-10-16T16:22:50;8.20;;;4.60;;
9222;SDS011;7557;51.698;3.942;2022-10-16T16:25:17;7.25;;;4.85;;
9222;SDS011;7557;51.698;3.942;2022-10-16T16:27:59;7.95;;;5.00;;
9222;SDS011;7557;51.698;3.942;2022-10-16T16:30:27;8.90;;;4.43;;